createdAt,value
2019-01-14T00:00:42.890Z,4.62
2019-01-14T00:03:10.355Z,4.60
2019-01-14T00:05:37.794Z,3.60
2019-01-14T00:08:05.198Z,4.28
2019-01-14T00:10:32.670Z,3.52
2019-01-14T00:13:00.085Z,5.50
2019-01-14T00:15:27.600Z,4.95
2019-01-14T00:17:55.020Z,5.03
2019-01-14T00:20:22.482Z,4.78
2019-01-14T00:22:49.917Z,6.80
2019-01-14T00:25:17.338Z,3.70
2019-01-14T00:27:44.765Z,3.85
2019-01-14T00:30:13.458Z,5.00
2019-01-14T00:32:40.947Z,5.83
2019-01-14T00:35:08.351Z,4.75
2019-01-14T00:37:35.837Z,5.42
2019-01-14T00:40:03.946Z,5.78
2019-01-14T00:42:31.584Z,4.25
2019-01-14T00:44:58.989Z,5.40
2019-01-14T00:47:26.420Z,5.47
2019-01-14T00:49:53.876Z,5.28
2019-01-14T00:52:21.275Z,5.08
2019-01-14T00:54:48.693Z,4.78
2019-01-14T00:57:16.123Z,5.30
2019-01-14T00:59:43.532Z,6.83
2019-01-14T01:02:10.985Z,5.03
2019-01-14T01:04:38.383Z,5.12
2019-01-14T01:07:05.879Z,5.28
2019-01-14T01:09:33.283Z,5.47
2019-01-14T01:12:00.768Z,4.70
2019-01-14T01:14:28.204Z,5.47
2019-01-14T01:16:55.620Z,4.90
2019-01-14T01:19:23.062Z,4.97
2019-01-14T01:21:50.462Z,6.28
2019-01-14T01:24:17.881Z,5.40
2019-01-14T01:26:45.298Z,5.05
2019-01-14T01:29:12.721Z,4.50
2019-01-14T01:31:40.183Z,5.67
2019-01-14T01:34:07.615Z,5.83
2019-01-14T01:36:35.281Z,6.37
2019-01-14T01:39:04.317Z,5.25
2019-01-14T01:41:31.767Z,5.97
2019-01-14T01:43:59.162Z,5.35
2019-01-14T01:46:26.592Z,5.12
2019-01-14T01:48:54.008Z,5.47
2019-01-14T01:51:21.455Z,7.65
2019-01-14T01:53:48.860Z,6.25
2019-01-14T01:56:16.261Z,7.03
2019-01-14T01:58:43.695Z,5.25
2019-01-14T02:01:11.098Z,5.80
2019-01-14T02:03:38.528Z,3.95
2019-01-14T02:06:05.945Z,4.95
2019-01-14T02:08:33.374Z,5.75
2019-01-14T02:11:00.769Z,4.78
2019-01-14T02:13:28.179Z,5.05
2019-01-14T02:15:55.649Z,6.75
2019-01-14T02:18:23.075Z,6.05
2019-01-14T02:20:50.471Z,6.10
2019-01-14T02:23:17.906Z,4.60
2019-01-14T02:25:45.330Z,6.20
2019-01-14T02:28:12.766Z,4.92
2019-01-14T02:30:40.173Z,5.10
2019-01-14T02:33:07.611Z,6.00
2019-01-14T02:35:35.020Z,8.55
2019-01-14T02:38:02.478Z,6.70
2019-01-14T02:40:29.887Z,3.92
2019-01-14T02:42:57.304Z,5.87
2019-01-14T02:45:24.731Z,6.03
2019-01-14T02:47:52.137Z,5.20
2019-01-14T02:50:19.567Z,4.85
2019-01-14T02:52:47.045Z,6.17
2019-01-14T02:55:14.496Z,5.53
2019-01-14T02:57:41.894Z,9.95
2019-01-14T03:00:10.842Z,7.42
2019-01-14T03:02:38.278Z,5.75
2019-01-14T03:05:06.865Z,5.83
2019-01-14T03:07:34.267Z,6.22
2019-01-14T03:10:01.692Z,7.62
2019-01-14T03:12:29.139Z,5.97
2019-01-14T03:14:56.540Z,6.70
2019-01-14T03:17:23.941Z,7.25
2019-01-14T03:19:51.407Z,6.15
2019-01-14T03:22:18.810Z,4.20
2019-01-14T03:24:46.214Z,7.08
2019-01-14T03:27:13.648Z,7.50
2019-01-14T03:29:41.109Z,5.47
2019-01-14T03:32:08.514Z,5.45
2019-01-14T03:34:35.923Z,5.10
2019-01-14T03:37:05.630Z,6.37
2019-01-14T03:39:32.407Z,5.50
2019-01-14T03:41:59.840Z,6.47
2019-01-14T03:44:27.241Z,6.95
2019-01-14T03:46:54.647Z,6.05
2019-01-14T03:49:22.082Z,5.92
2019-01-14T03:51:49.490Z,7.80
2019-01-14T03:54:16.985Z,5.50
2019-01-14T03:56:44.399Z,4.75
2019-01-14T03:59:11.915Z,5.15
2019-01-14T04:01:39.337Z,5.53
2019-01-14T04:04:06.744Z,5.70
2019-01-14T04:06:34.166Z,7.70
2019-01-14T04:09:01.590Z,4.85
2019-01-14T04:11:29.018Z,5.17
2019-01-14T04:13:56.418Z,4.67
2019-01-14T04:16:23.832Z,4.70
2019-01-14T04:18:51.314Z,5.28
2019-01-14T04:21:18.736Z,5.42
2019-01-14T04:23:46.153Z,5.62
2019-01-14T04:26:15.218Z,4.78
2019-01-14T04:28:42.641Z,5.22
2019-01-14T04:31:10.092Z,4.75
2019-01-14T04:33:37.500Z,5.15
2019-01-14T04:36:04.970Z,5.85
2019-01-14T04:38:32.565Z,4.80
2019-01-14T04:41:00.005Z,4.87
2019-01-14T04:43:27.540Z,6.03
2019-01-14T04:45:54.951Z,4.87
2019-01-14T04:48:22.355Z,4.17
2019-01-14T04:50:49.912Z,4.90
2019-01-14T04:53:17.322Z,5.03
2019-01-14T04:55:44.822Z,4.53
2019-01-14T04:58:12.246Z,6.65
2019-01-14T05:00:39.681Z,5.25
2019-01-14T05:03:07.131Z,6.87
2019-01-14T05:05:34.540Z,6.25
2019-01-14T05:08:01.949Z,5.03
2019-01-14T05:10:29.362Z,7.58
2019-01-14T05:12:56.777Z,5.25
2019-01-14T05:15:24.249Z,6.25
2019-01-14T05:17:51.652Z,4.30
2019-01-14T05:20:20.346Z,5.78
2019-01-14T05:22:47.791Z,5.10
2019-01-14T05:25:15.213Z,5.87
2019-01-14T05:27:42.675Z,5.28
2019-01-14T05:30:11.854Z,4.10
2019-01-14T05:32:39.257Z,5.65
2019-01-14T05:35:07.277Z,4.67
2019-01-14T05:37:37.751Z,5.10
2019-01-14T05:40:05.372Z,3.67
2019-01-14T05:42:32.774Z,5.70
2019-01-14T05:45:00.240Z,5.10
2019-01-14T05:47:27.602Z,5.83
2019-01-14T05:49:55.014Z,6.62
2019-01-14T05:52:22.461Z,6.03
2019-01-14T05:54:49.938Z,6.60
2019-01-14T05:57:17.426Z,4.95
2019-01-14T05:59:44.834Z,4.80
2019-01-14T06:02:12.252Z,5.37
2019-01-14T06:04:39.677Z,4.83
2019-01-14T06:07:07.130Z,4.58
2019-01-14T06:09:34.551Z,5.62
2019-01-14T06:12:01.976Z,4.00
2019-01-14T06:14:29.428Z,3.22
2019-01-14T06:16:56.845Z,4.42
2019-01-14T06:19:24.814Z,3.80
2019-01-14T06:21:52.246Z,6.45
2019-01-14T06:24:19.656Z,3.92
2019-01-14T06:26:47.124Z,5.05
2019-01-14T06:29:14.546Z,4.53
2019-01-14T06:31:41.994Z,4.25
2019-01-14T06:34:09.445Z,4.65
2019-01-14T06:36:36.825Z,6.12
2019-01-14T06:39:05.767Z,6.08
2019-01-14T06:41:33.197Z,4.15
2019-01-14T06:44:00.597Z,5.67
2019-01-14T06:46:28.119Z,4.95
2019-01-14T06:48:55.559Z,5.62
2019-01-14T06:51:22.965Z,4.60
2019-01-14T06:53:50.374Z,6.58
2019-01-14T06:56:17.827Z,4.30
2019-01-14T06:58:45.302Z,3.95
2019-01-14T07:01:12.710Z,5.62
2019-01-14T07:03:40.156Z,3.77
2019-01-14T07:06:07.568Z,4.92
2019-01-14T07:08:34.996Z,4.90
2019-01-14T07:11:02.945Z,4.05
2019-01-14T07:13:30.354Z,4.62
2019-01-14T07:15:57.751Z,3.52
2019-01-14T07:18:25.171Z,3.55
2019-01-14T07:20:52.573Z,4.03
2019-01-14T07:23:20.000Z,4.17
2019-01-14T07:25:47.435Z,3.10
2019-01-14T07:28:14.892Z,2.40
2019-01-14T07:30:42.298Z,2.05
2019-01-14T07:33:09.689Z,2.60
2019-01-14T07:35:37.119Z,2.92
2019-01-14T07:38:06.971Z,2.95
2019-01-14T07:40:33.686Z,3.08
2019-01-14T07:43:01.120Z,2.67
2019-01-14T07:45:28.514Z,3.25
2019-01-14T07:47:55.942Z,3.10
2019-01-14T07:50:23.529Z,3.92
2019-01-14T07:52:51.021Z,2.85
2019-01-14T07:55:18.415Z,3.30
2019-01-14T07:57:45.844Z,4.40
2019-01-14T08:00:14.805Z,3.95
2019-01-14T08:02:42.219Z,4.78
2019-01-14T08:05:09.637Z,4.60
2019-01-14T08:07:37.045Z,3.75
2019-01-14T08:10:05.848Z,3.80
2019-01-14T08:12:33.301Z,3.60
2019-01-14T08:15:00.720Z,3.30
2019-01-14T08:17:28.249Z,3.40
2019-01-14T08:19:55.730Z,2.90
2019-01-14T08:22:23.177Z,3.40
2019-01-14T08:24:50.608Z,3.50
2019-01-14T08:27:17.976Z,2.75
2019-01-14T08:29:45.410Z,3.58
2019-01-14T08:32:12.824Z,2.85
2019-01-14T08:34:40.295Z,3.10
2019-01-14T08:37:08.555Z,3.42
2019-01-14T08:39:36.009Z,3.40
2019-01-14T08:42:04.044Z,2.47
2019-01-14T08:44:33.094Z,2.10
2019-01-14T08:47:00.595Z,3.65
2019-01-14T08:49:28.361Z,4.10
2019-01-14T08:51:55.785Z,3.87
2019-01-14T08:54:23.189Z,3.95
2019-01-14T08:56:50.938Z,4.08
2019-01-14T08:59:18.362Z,3.20
2019-01-14T09:01:45.770Z,4.37
2019-01-14T09:04:13.202Z,4.00
2019-01-14T09:06:40.623Z,2.90
2019-01-14T09:09:09.765Z,2.90
2019-01-14T09:11:37.194Z,3.70
2019-01-14T09:14:04.986Z,2.90
2019-01-14T09:16:33.370Z,3.12
2019-01-14T09:19:00.785Z,3.20
2019-01-14T09:21:28.270Z,3.50
2019-01-14T09:23:55.729Z,4.72
2019-01-14T09:26:23.404Z,3.33
2019-01-14T09:28:53.728Z,2.80
2019-01-14T09:31:22.650Z,3.25
2019-01-14T09:33:52.731Z,3.92
2019-01-14T09:36:20.505Z,2.90
2019-01-14T09:38:47.901Z,3.87
2019-01-14T09:41:15.403Z,2.87
2019-01-14T09:43:43.090Z,4.35
2019-01-14T09:46:10.504Z,3.25
2019-01-14T09:48:37.941Z,3.33
2019-01-14T09:51:05.398Z,3.92
2019-01-14T09:53:33.221Z,3.85
2019-01-14T09:56:00.662Z,4.20
2019-01-14T09:58:28.366Z,3.58
2019-01-14T10:00:55.826Z,3.98
2019-01-14T10:03:23.238Z,3.62
2019-01-14T10:05:51.024Z,3.17
2019-01-14T10:08:21.659Z,3.30
2019-01-14T10:10:49.425Z,3.12
2019-01-14T10:13:16.884Z,3.40
2019-01-14T10:15:44.648Z,4.30
2019-01-14T10:18:12.514Z,3.55
2019-01-14T10:20:39.946Z,3.47
2019-01-14T10:23:27.010Z,3.05
2019-01-14T10:26:02.245Z,4.00
2019-01-14T10:28:30.108Z,4.37
2019-01-14T10:30:57.594Z,4.65
2019-01-14T10:33:25.362Z,5.33
2019-01-14T10:35:54.589Z,7.90
2019-01-14T10:38:22.329Z,4.20
2019-01-14T10:40:49.750Z,7.45
2019-01-14T10:43:18.048Z,3.80
2019-01-14T10:45:46.165Z,4.40
2019-01-14T10:48:15.437Z,9.43
2019-01-14T10:50:43.465Z,3.87
2019-01-14T10:53:10.962Z,3.47
2019-01-14T10:55:39.016Z,3.95
2019-01-14T10:58:10.146Z,3.58
2019-01-14T11:00:38.278Z,4.15
2019-01-14T11:03:06.663Z,4.08
2019-01-14T11:05:40.112Z,3.60
2019-01-14T11:08:08.446Z,3.72
2019-01-14T11:10:36.389Z,3.62
2019-01-14T11:13:04.854Z,4.35
2019-01-14T11:15:33.477Z,3.45
2019-01-14T11:18:02.306Z,4.22
2019-01-14T11:20:31.590Z,3.95
2019-01-14T11:22:59.849Z,3.75
2019-01-14T11:25:29.401Z,3.55
2019-01-14T11:27:57.560Z,3.87
2019-01-14T11:30:26.875Z,3.80
2019-01-14T11:32:54.984Z,3.75
2019-01-14T11:35:22.727Z,4.15
2019-01-14T11:37:51.790Z,4.10
2019-01-14T11:40:21.649Z,3.05
2019-01-14T11:42:50.833Z,3.55
2019-01-14T11:45:18.837Z,3.52
2019-01-14T11:47:48.229Z,3.00
2019-01-14T11:50:17.641Z,4.33
2019-01-14T11:52:46.277Z,3.55
2019-01-14T11:55:15.265Z,3.30
2019-01-14T11:57:42.733Z,4.10
2019-01-14T12:00:17.474Z,2.90
2019-01-14T12:02:44.979Z,2.77
2019-01-14T12:05:12.545Z,2.92
2019-01-14T12:07:40.281Z,3.58
2019-01-14T12:10:08.965Z,3.58
2019-01-14T12:12:36.348Z,3.15
2019-01-14T12:15:05.347Z,3.40
2019-01-14T12:17:32.753Z,3.95
2019-01-14T12:20:00.510Z,3.25
2019-01-14T12:22:28.277Z,3.20
2019-01-14T12:24:56.034Z,3.52
2019-01-14T12:27:23.805Z,4.22
2019-01-14T12:29:51.303Z,3.08
2019-01-14T12:32:18.703Z,3.50
2019-01-14T12:34:46.125Z,4.00
2019-01-14T12:37:13.943Z,3.02
2019-01-14T12:39:41.709Z,3.30
2019-01-14T12:42:09.160Z,3.87
2019-01-14T12:44:36.642Z,3.50
2019-01-14T12:47:04.124Z,2.70
2019-01-14T12:49:31.549Z,3.65
2019-01-14T12:51:59.305Z,3.87
2019-01-14T12:54:27.172Z,3.00
2019-01-14T12:56:54.936Z,3.00
2019-01-14T12:59:22.702Z,3.92
2019-01-14T13:01:50.117Z,2.80
2019-01-14T13:04:17.526Z,3.10
2019-01-14T13:06:44.992Z,3.25
2019-01-14T13:09:12.455Z,4.95
2019-01-14T13:11:39.935Z,3.52
2019-01-14T13:14:07.367Z,2.80
2019-01-14T13:16:35.131Z,3.15
2019-01-14T13:19:02.525Z,2.90
2019-01-14T13:21:29.972Z,2.95
2019-01-14T13:23:57.377Z,2.40
2019-01-14T13:26:24.784Z,2.60
2019-01-14T13:28:52.297Z,2.58
2019-01-14T13:31:20.023Z,3.15
2019-01-14T13:33:47.418Z,4.00
2019-01-14T13:36:14.960Z,4.20
2019-01-14T13:38:42.371Z,3.55
2019-01-14T13:41:09.803Z,3.05
2019-01-14T13:43:37.241Z,2.70
2019-01-14T13:46:04.726Z,2.72
2019-01-14T13:48:32.128Z,3.33
2019-01-14T13:50:59.610Z,2.60
2019-01-14T13:53:27.016Z,3.37
2019-01-14T13:55:59.421Z,2.77
2019-01-14T13:58:24.016Z,2.52
2019-01-14T14:00:51.849Z,3.52
2019-01-14T14:03:19.482Z,2.67
2019-01-14T14:05:46.899Z,3.42
2019-01-14T14:08:14.715Z,2.72
2019-01-14T14:10:42.477Z,2.90
2019-01-14T14:13:09.881Z,3.17
2019-01-14T14:15:37.408Z,2.67
2019-01-14T14:18:05.165Z,2.80
2019-01-14T14:20:32.565Z,3.08
2019-01-14T14:23:00.379Z,3.02
2019-01-14T14:25:27.783Z,2.75
2019-01-14T14:27:55.507Z,2.50
2019-01-14T14:30:24.098Z,3.05
2019-01-14T14:32:51.531Z,3.60
2019-01-14T14:35:18.959Z,3.55
2019-01-14T14:37:46.387Z,3.90
2019-01-14T14:40:14.082Z,3.25
2019-01-14T14:42:41.554Z,2.95
2019-01-14T14:45:10.325Z,2.52
2019-01-14T14:47:38.348Z,2.52
2019-01-14T14:50:13.316Z,3.10
2019-01-14T14:52:40.832Z,2.58
2019-01-14T14:55:08.414Z,3.17
2019-01-14T14:57:35.816Z,2.95
2019-01-14T15:00:04.830Z,2.55
2019-01-14T15:02:32.498Z,2.27
2019-01-14T15:05:00.008Z,2.90
2019-01-14T15:07:27.462Z,2.52
2019-01-14T15:09:55.938Z,2.30
2019-01-14T15:12:23.859Z,3.27
2019-01-14T15:14:51.400Z,2.25
2019-01-14T15:17:19.073Z,3.08
2019-01-14T15:19:46.497Z,2.83
2019-01-14T15:22:13.950Z,3.00
2019-01-14T15:24:41.400Z,2.75
2019-01-14T15:27:08.805Z,2.72
2019-01-14T15:29:36.226Z,3.40
2019-01-14T15:32:03.632Z,3.52
2019-01-14T15:34:31.061Z,2.67
2019-01-14T15:36:59.038Z,3.05
2019-01-14T15:39:26.458Z,4.60
2019-01-14T15:41:53.866Z,2.80
2019-01-14T15:44:21.563Z,3.50
2019-01-14T15:46:48.991Z,3.62
2019-01-14T15:49:16.398Z,5.15
2019-01-14T15:51:43.829Z,3.10
2019-01-14T15:54:11.696Z,4.10
2019-01-14T15:56:39.212Z,5.33
2019-01-14T15:59:06.631Z,4.80
2019-01-14T16:01:34.078Z,3.40
2019-01-14T16:04:01.494Z,5.33
2019-01-14T16:06:28.909Z,5.35
2019-01-14T16:08:56.650Z,3.47
2019-01-14T16:11:24.073Z,3.17
2019-01-14T16:13:51.497Z,3.35
2019-01-14T16:16:19.440Z,3.60
2019-01-14T16:18:46.895Z,3.30
2019-01-14T16:21:14.762Z,3.40
2019-01-14T16:23:42.227Z,4.72
2019-01-14T16:26:09.984Z,3.00
2019-01-14T16:28:37.400Z,3.45
2019-01-14T16:31:04.818Z,3.47
2019-01-14T16:33:32.230Z,3.80
2019-01-14T16:35:59.933Z,3.47
2019-01-14T16:38:27.887Z,2.80
2019-01-14T16:40:55.650Z,2.37
2019-01-14T16:43:23.051Z,3.17
2019-01-14T16:45:50.778Z,2.55
2019-01-14T16:48:18.540Z,2.98
2019-01-14T16:50:46.412Z,2.80
2019-01-14T16:53:13.810Z,3.10
2019-01-14T16:55:42.888Z,3.30
2019-01-14T16:58:10.357Z,4.08
2019-01-14T17:00:37.827Z,3.00
2019-01-14T17:03:05.274Z,3.15
2019-01-14T17:05:32.771Z,4.05
2019-01-14T17:08:00.267Z,3.35
2019-01-14T17:10:27.748Z,3.92
2019-01-14T17:12:55.163Z,2.80
2019-01-14T17:15:22.932Z,4.00
2019-01-14T17:17:50.388Z,3.10
2019-01-14T17:20:18.691Z,3.40
2019-01-14T17:22:46.216Z,2.87
2019-01-14T17:25:13.771Z,3.00
2019-01-14T17:27:41.239Z,3.40
2019-01-14T17:30:12.814Z,3.58
2019-01-14T17:32:40.685Z,3.52
2019-01-14T17:35:08.172Z,3.45
2019-01-14T17:37:35.627Z,3.05
2019-01-14T17:40:04.506Z,3.55
2019-01-14T17:42:32.001Z,3.67
2019-01-14T17:44:59.832Z,3.00
2019-01-14T17:47:27.219Z,3.27
2019-01-14T17:49:54.930Z,4.40
2019-01-14T17:52:22.390Z,3.00
2019-01-14T17:54:50.149Z,3.15
2019-01-14T17:57:17.686Z,3.70
2019-01-14T17:59:45.096Z,5.12
2019-01-14T18:02:12.602Z,3.05
2019-01-14T18:04:40.394Z,3.83
2019-01-14T18:07:08.070Z,4.00
2019-01-14T18:09:35.658Z,3.80
2019-01-14T18:12:03.157Z,4.10
2019-01-14T18:14:32.390Z,3.70
2019-01-14T18:17:00.567Z,3.50
2019-01-14T18:19:28.865Z,3.90
2019-01-14T18:21:57.839Z,4.42
2019-01-14T18:24:26.902Z,6.85
2019-01-14T18:26:56.228Z,4.78
2019-01-14T18:29:25.495Z,4.15
2019-01-14T18:31:54.320Z,3.90
2019-01-14T18:34:22.933Z,3.90
2019-01-14T18:36:50.946Z,4.60
2019-01-14T18:39:18.378Z,4.40
2019-01-14T18:41:46.445Z,4.70
2019-01-14T18:44:15.960Z,6.60
2019-01-14T18:46:43.389Z,5.37
2019-01-14T18:49:13.692Z,6.05
2019-01-14T18:51:41.767Z,5.15
2019-01-14T18:54:11.509Z,9.28
2019-01-14T18:56:39.443Z,4.10
2019-01-14T18:59:08.808Z,4.40
2019-01-14T19:01:38.868Z,6.87
2019-01-14T19:04:06.432Z,6.47
2019-01-14T19:06:34.190Z,7.35
2019-01-14T19:09:02.274Z,4.50
2019-01-14T19:11:29.840Z,6.20
2019-01-14T19:13:57.493Z,4.60
2019-01-14T19:16:25.215Z,3.80
2019-01-14T19:18:52.671Z,3.92
2019-01-14T19:21:20.160Z,3.65
2019-01-14T19:23:47.576Z,4.75
2019-01-14T19:26:15.089Z,3.72
2019-01-14T19:28:43.975Z,3.60
2019-01-14T19:31:11.638Z,3.87
2019-01-14T19:33:39.538Z,4.42
2019-01-14T19:36:06.973Z,4.60
2019-01-14T19:38:34.430Z,3.77
2019-01-14T19:41:02.212Z,4.28
2019-01-14T19:43:30.056Z,4.00
2019-01-14T19:45:57.709Z,4.83
2019-01-14T19:48:26.510Z,4.30
2019-01-14T19:50:53.960Z,3.58
2019-01-14T19:53:21.395Z,4.95
2019-01-14T19:55:48.821Z,4.95
2019-01-14T19:58:16.330Z,3.80
2019-01-14T20:00:43.960Z,4.35
2019-01-14T20:03:11.402Z,3.77
2019-01-14T20:05:38.842Z,4.10
2019-01-14T20:08:06.556Z,4.95
2019-01-14T20:10:34.348Z,3.70
2019-01-14T20:13:01.783Z,3.80
2019-01-14T20:15:29.441Z,4.17
2019-01-14T20:17:56.861Z,4.00
2019-01-14T20:20:25.309Z,4.37
2019-01-14T20:22:54.003Z,3.35
2019-01-14T20:25:22.679Z,4.10
2019-01-14T20:27:50.114Z,3.27
2019-01-14T20:30:19.146Z,3.05
2019-01-14T20:32:46.941Z,4.00
2019-01-14T20:35:14.497Z,4.55
2019-01-14T20:37:41.935Z,3.67
2019-01-14T20:40:11.023Z,5.20
2019-01-14T20:42:38.631Z,3.92
2019-01-14T20:45:07.229Z,4.58
2019-01-14T20:47:34.673Z,3.90
2019-01-14T20:50:03.706Z,4.00
2019-01-14T20:52:32.895Z,3.50
2019-01-14T20:55:01.883Z,3.55
2019-01-14T20:57:30.333Z,3.77
2019-01-14T21:00:00.478Z,3.70
2019-01-14T21:02:29.982Z,4.22
2019-01-14T21:04:58.106Z,3.87
2019-01-14T21:07:25.828Z,4.08
2019-01-14T21:09:53.633Z,3.30
2019-01-14T21:12:22.583Z,4.87
2019-01-14T21:14:52.459Z,3.17
2019-01-14T21:17:22.020Z,3.85
2019-01-14T21:19:51.495Z,4.17
2019-01-14T21:22:19.864Z,3.98
2019-01-14T21:24:47.980Z,3.90
2019-01-14T21:27:15.767Z,3.75
2019-01-14T21:29:44.767Z,5.78
2019-01-14T21:32:13.151Z,3.67
2019-01-14T21:34:40.878Z,3.98
2019-01-14T21:37:09.058Z,3.95
2019-01-14T21:39:38.513Z,5.05
2019-01-14T21:42:08.063Z,5.05
2019-01-14T21:44:36.418Z,4.70
2019-01-14T21:47:05.568Z,4.50
2019-01-14T21:49:33.065Z,4.35
2019-01-14T21:52:01.533Z,5.20
2019-01-14T21:54:29.153Z,5.05
2019-01-14T21:56:58.772Z,3.92
2019-01-14T21:59:26.260Z,6.92
2019-01-14T22:01:54.428Z,10.65
2019-01-14T22:04:22.455Z,5.72
2019-01-14T22:06:50.479Z,5.10
2019-01-14T22:09:18.589Z,4.90
2019-01-14T22:11:46.185Z,4.05
2019-01-14T22:14:13.633Z,7.95
2019-01-14T22:16:41.144Z,5.37
2019-01-14T22:19:08.701Z,4.55
2019-01-14T22:21:36.204Z,4.80
2019-01-14T22:24:06.049Z,3.95
2019-01-14T22:26:35.479Z,3.85
2019-01-14T22:29:04.584Z,4.72
2019-01-14T22:31:32.802Z,3.55
2019-01-14T22:34:01.534Z,4.40
2019-01-14T22:36:30.893Z,3.47
2019-01-14T22:39:01.102Z,4.30
2019-01-14T22:41:30.561Z,3.83
2019-01-14T22:43:59.262Z,4.35
2019-01-14T22:46:27.953Z,4.40
2019-01-14T22:48:57.071Z,4.00
2019-01-14T22:51:26.327Z,3.45
2019-01-14T22:53:57.580Z,3.50
2019-01-14T22:56:29.104Z,4.20
2019-01-14T22:59:01.009Z,3.85
2019-01-14T23:01:31.178Z,4.20
2019-01-14T23:04:00.003Z,3.60
2019-01-14T23:06:31.521Z,3.85
2019-01-14T23:09:04.078Z,4.90
2019-01-14T23:11:33.691Z,5.80
2019-01-14T23:14:03.819Z,4.58
2019-01-14T23:16:33.988Z,3.60
2019-01-14T23:19:06.533Z,4.45
2019-01-14T23:21:36.296Z,3.20
2019-01-14T23:24:04.760Z,3.72
2019-01-14T23:26:32.291Z,4.17
2019-01-14T23:28:59.782Z,3.62
2019-01-14T23:31:27.307Z,3.92
2019-01-14T23:33:54.793Z,4.35
2019-01-14T23:36:22.404Z,3.92
2019-01-14T23:38:50.243Z,3.67
2019-01-14T23:41:17.695Z,3.42
2019-01-14T23:43:45.226Z,4.25
2019-01-14T23:46:12.996Z,4.35
2019-01-14T23:48:40.727Z,4.55
2019-01-14T23:51:08.472Z,4.08
2019-01-14T23:53:35.927Z,4.47
2019-01-14T23:56:04.627Z,4.00
2019-01-14T23:58:32.215Z,3.52
